Cap Chat, Canada
Current Conditions -  °F | °C
As of 11:00 PM on Saturday 24 Jan 2015 (Local Time) from CYBC Reporting Station
Light Snow Light Snow  
Wind Chill: 17°   Ceiling: 1600
Heat Index: 27°   Visibility: 9mi
Dew Point: 25°   Wind: 10mph
Humidity: 93%   Direction: 70°ENE
Pressure: 29.17"   Gusts: NA
Location:  49.1°N, 66.68°W
Report Text: CYBC 250400Z AUTO 07009KT 9SM -SN SCT011 BKN016 OVC027 M03/M04 A2917 RMK PRESFR SLP879
Loading
Personal Weather Stations






























Interactive Weather Map New forecast layout! Learn more

10-Day Weather Forecast

Advertisements
Track Severe Weather on mobile